sensor_id;sensor_type;location;lat;lon;timestamp;P1;durP1;ratioP1;P2;durP2;ratioP2
28311;SDS011;15572;48.810;9.148;2023-07-29T00:00:55;4.78;;;1.95;;
28311;SDS011;15572;48.810;9.148;2023-07-29T00:05:51;1.90;;;1.70;;
28311;SDS011;15572;48.810;9.148;2023-07-29T00:10:48;3.13;;;1.73;;
28311;SDS011;15572;48.810;9.148;2023-07-29T00:15:46;6.72;;;1.88;;
28311;SDS011;15572;48.810;9.148;2023-07-29T00:20:42;2.47;;;1.77;;
28311;SDS011;15572;48.810;9.148;2023-07-29T00:25:39;6.97;;;2.10;;
28311;SDS011;15572;48.810;9.148;2023-07-29T00:30:35;2.78;;;1.85;;
28311;SDS011;15572;48.810;9.148;2023-07-29T00:35:33;6.50;;;2.20;;
28311;SDS011;15572;48.810;9.148;2023-07-29T00:40:30;3.33;;;1.80;;
28311;SDS011;15572;48.810;9.148;2023-07-29T00:45:31;3.27;;;1.80;;
28311;SDS011;15572;48.810;9.148;2023-07-29T00:50:28;2.57;;;1.90;;
28311;SDS011;15572;48.810;9.148;2023-07-29T00:55:28;3.17;;;2.00;;
28311;SDS011;15572;48.810;9.148;2023-07-29T01:00:24;2.43;;;1.70;;
28311;SDS011;15572;48.810;9.148;2023-07-29T01:05:21;2.93;;;1.80;;
28311;SDS011;15572;48.810;9.148;2023-07-29T01:10:21;3.77;;;1.73;;
28311;SDS011;15572;48.810;9.148;2023-07-29T01:15:28;2.03;;;1.92;;
28311;SDS011;15572;48.810;9.148;2023-07-29T01:20:29;5.03;;;1.95;;
28311;SDS011;15572;48.810;9.148;2023-07-29T01:25:30;4.50;;;2.07;;
28311;SDS011;15572;48.810;9.148;2023-07-29T01:30:28;6.17;;;2.13;;
28311;SDS011;15572;48.810;9.148;2023-07-29T01:35:31;2.47;;;2.00;;
28311;SDS011;15572;48.810;9.148;2023-07-29T01:40:33;2.20;;;2.00;;
28311;SDS011;15572;48.810;9.148;2023-07-29T01:45:30;1.80;;;1.70;;
28311;SDS011;15572;48.810;9.148;2023-07-29T01:50:30;3.43;;;2.03;;
28311;SDS011;15572;48.810;9.148;2023-07-29T01:55:27;3.72;;;1.90;;
28311;SDS011;15572;48.810;9.148;2023-07-29T02:00:26;2.00;;;1.80;;
28311;SDS011;15572;48.810;9.148;2023-07-29T02:05:22;3.93;;;1.60;;
28311;SDS011;15572;48.810;9.148;2023-07-29T02:10:19;2.20;;;1.90;;
28311;SDS011;15572;48.810;9.148;2023-07-29T02:15:15;1.92;;;1.70;;
28311;SDS011;15572;48.810;9.148;2023-07-29T02:20:13;2.00;;;1.70;;
28311;SDS011;15572;48.810;9.148;2023-07-29T02:25:10;3.30;;;1.90;;
28311;SDS011;15572;48.810;9.148;2023-07-29T02:30:07;3.50;;;1.92;;
28311;SDS011;15572;48.810;9.148;2023-07-29T02:35:05;2.87;;;1.70;;
28311;SDS011;15572;48.810;9.148;2023-07-29T02:40:03;2.75;;;1.95;;
28311;SDS011;15572;48.810;9.148;2023-07-29T02:45:01;2.95;;;1.88;;
28311;SDS011;15572;48.810;9.148;2023-07-29T02:49:57;2.47;;;2.20;;
28311;SDS011;15572;48.810;9.148;2023-07-29T02:54:54;2.53;;;1.80;;
28311;SDS011;15572;48.810;9.148;2023-07-29T02:59:51;4.57;;;1.80;;
28311;SDS011;15572;48.810;9.148;2023-07-29T03:04:48;2.23;;;2.00;;
28311;SDS011;15572;48.810;9.148;2023-07-29T03:09:45;4.63;;;1.90;;
28311;SDS011;15572;48.810;9.148;2023-07-29T03:14:41;2.25;;;1.90;;
28311;SDS011;15572;48.810;9.148;2023-07-29T03:19:39;1.97;;;1.77;;
28311;SDS011;15572;48.810;9.148;2023-07-29T03:24:35;2.67;;;1.90;;
28311;SDS011;15572;48.810;9.148;2023-07-29T03:29:32;3.88;;;2.20;;
28311;SDS011;15572;48.810;9.148;2023-07-29T03:34:28;3.58;;;1.80;;
28311;SDS011;15572;48.810;9.148;2023-07-29T03:39:26;4.20;;;2.00;;
28311;SDS011;15572;48.810;9.148;2023-07-29T03:44:23;2.47;;;1.90;;
28311;SDS011;15572;48.810;9.148;2023-07-29T03:49:19;2.53;;;2.08;;
28311;SDS011;15572;48.810;9.148;2023-07-29T03:54:16;3.03;;;2.07;;
28311;SDS011;15572;48.810;9.148;2023-07-29T03:59:13;2.42;;;2.22;;
28311;SDS011;15572;48.810;9.148;2023-07-29T04:04:10;4.57;;;2.20;;
28311;SDS011;15572;48.810;9.148;2023-07-29T04:09:07;6.63;;;2.30;;
28311;SDS011;15572;48.810;9.148;2023-07-29T04:14:04;3.30;;;2.10;;
28311;SDS011;15572;48.810;9.148;2023-07-29T04:19:02;2.60;;;2.10;;
28311;SDS011;15572;48.810;9.148;2023-07-29T04:23:58;4.78;;;2.15;;
28311;SDS011;15572;48.810;9.148;2023-07-29T04:28:55;3.27;;;2.27;;
28311;SDS011;15572;48.810;9.148;2023-07-29T04:33:51;3.63;;;2.30;;
28311;SDS011;15572;48.810;9.148;2023-07-29T04:38:49;2.88;;;2.42;;
28311;SDS011;15572;48.810;9.148;2023-07-29T04:43:46;2.87;;;2.00;;
28311;SDS011;15572;48.810;9.148;2023-07-29T04:48:44;3.40;;;2.70;;
28311;SDS011;15572;48.810;9.148;2023-07-29T04:53:41;7.27;;;2.90;;
28311;SDS011;15572;48.810;9.148;2023-07-29T04:58:38;3.50;;;2.70;;
28311;SDS011;15572;48.810;9.148;2023-07-29T05:03:35;8.67;;;3.00;;
28311;SDS011;15572;48.810;9.148;2023-07-29T05:08:34;4.63;;;3.03;;
28311;SDS011;15572;48.810;9.148;2023-07-29T05:13:31;5.23;;;3.33;;
28311;SDS011;15572;48.810;9.148;2023-07-29T05:18:29;3.57;;;3.10;;
28311;SDS011;15572;48.810;9.148;2023-07-29T05:23:25;5.37;;;2.90;;
28311;SDS011;15572;48.810;9.148;2023-07-29T05:28:21;6.47;;;3.53;;
28311;SDS011;15572;48.810;9.148;2023-07-29T05:33:18;4.35;;;3.13;;
28311;SDS011;15572;48.810;9.148;2023-07-29T05:38:16;4.50;;;3.08;;
28311;SDS011;15572;48.810;9.148;2023-07-29T05:43:12;5.00;;;3.37;;
28311;SDS011;15572;48.810;9.148;2023-07-29T05:48:09;3.75;;;2.47;;
28311;SDS011;15572;48.810;9.148;2023-07-29T05:53:06;3.53;;;2.70;;
28311;SDS011;15572;48.810;9.148;2023-07-29T05:58:03;6.67;;;3.00;;
28311;SDS011;15572;48.810;9.148;2023-07-29T06:03:00;6.90;;;2.97;;
28311;SDS011;15572;48.810;9.148;2023-07-29T06:07:57;3.58;;;2.67;;
28311;SDS011;15572;48.810;9.148;2023-07-29T06:12:53;5.85;;;3.10;;
28311;SDS011;15572;48.810;9.148;2023-07-29T06:17:51;8.82;;;2.95;;
28311;SDS011;15572;48.810;9.148;2023-07-29T06:22:48;4.07;;;3.40;;
28311;SDS011;15572;48.810;9.148;2023-07-29T06:27:44;5.43;;;3.42;;
28311;SDS011;15572;48.810;9.148;2023-07-29T06:32:41;5.13;;;3.40;;
28311;SDS011;15572;48.810;9.148;2023-07-29T06:37:38;4.60;;;2.65;;
28311;SDS011;15572;48.810;9.148;2023-07-29T06:42:35;2.90;;;2.60;;
28311;SDS011;15572;48.810;9.148;2023-07-29T06:47:32;3.47;;;2.40;;
28311;SDS011;15572;48.810;9.148;2023-07-29T06:52:28;3.42;;;2.05;;
28311;SDS011;15572;48.810;9.148;2023-07-29T06:57:26;2.28;;;2.08;;
28311;SDS011;15572;48.810;9.148;2023-07-29T07:02:23;2.20;;;1.80;;
28311;SDS011;15572;48.810;9.148;2023-07-29T07:07:22;2.10;;;1.90;;
28311;SDS011;15572;48.810;9.148;2023-07-29T07:12:19;3.92;;;1.90;;
28311;SDS011;15572;48.810;9.148;2023-07-29T07:17:16;4.22;;;2.00;;
28311;SDS011;15572;48.810;9.148;2023-07-29T07:22:13;3.17;;;2.25;;
28311;SDS011;15572;48.810;9.148;2023-07-29T07:27:09;2.22;;;1.67;;
28311;SDS011;15572;48.810;9.148;2023-07-29T07:32:06;2.00;;;1.73;;
28311;SDS011;15572;48.810;9.148;2023-07-29T07:37:04;2.20;;;1.75;;
28311;SDS011;15572;48.810;9.148;2023-07-29T07:42:01;3.15;;;1.92;;
28311;SDS011;15572;48.810;9.148;2023-07-29T07:46:57;2.97;;;1.60;;
28311;SDS011;15572;48.810;9.148;2023-07-29T07:51:54;2.92;;;1.35;;
28311;SDS011;15572;48.810;9.148;2023-07-29T07:56:52;2.17;;;1.20;;
28311;SDS011;15572;48.810;9.148;2023-07-29T08:01:48;4.57;;;1.40;;
28311;SDS011;15572;48.810;9.148;2023-07-29T08:06:45;1.88;;;1.48;;
28311;SDS011;15572;48.810;9.148;2023-07-29T08:11:41;2.22;;;1.30;;
28311;SDS011;15572;48.810;9.148;2023-07-29T08:16:39;1.30;;;1.20;;
28311;SDS011;15572;48.810;9.148;2023-07-29T08:21:35;4.28;;;1.80;;
28311;SDS011;15572;48.810;9.148;2023-07-29T08:26:32;1.67;;;1.50;;
28311;SDS011;15572;48.810;9.148;2023-07-29T08:31:28;2.03;;;1.30;;
28311;SDS011;15572;48.810;9.148;2023-07-29T08:36:29;2.53;;;1.35;;
28311;SDS011;15572;48.810;9.148;2023-07-29T08:41:28;1.83;;;1.45;;
28311;SDS011;15572;48.810;9.148;2023-07-29T08:46:28;3.80;;;1.33;;
28311;SDS011;15572;48.810;9.148;2023-07-29T08:51:26;2.65;;;1.20;;
28311;SDS011;15572;48.810;9.148;2023-07-29T08:56:25;1.50;;;1.40;;
28311;SDS011;15572;48.810;9.148;2023-07-29T09:01:23;1.30;;;1.20;;
28311;SDS011;15572;48.810;9.148;2023-07-29T09:06:19;1.20;;;1.10;;
28311;SDS011;15572;48.810;9.148;2023-07-29T09:11:17;1.23;;;1.13;;
28311;SDS011;15572;48.810;9.148;2023-07-29T09:16:16;1.85;;;1.40;;
28311;SDS011;15572;48.810;9.148;2023-07-29T09:21:13;1.30;;;1.20;;
28311;SDS011;15572;48.810;9.148;2023-07-29T09:26:11;1.30;;;1.20;;
28311;SDS011;15572;48.810;9.148;2023-07-29T09:31:13;1.67;;;1.15;;
28311;SDS011;15572;48.810;9.148;2023-07-29T09:36:16;1.63;;;1.30;;
28311;SDS011;15572;48.810;9.148;2023-07-29T09:41:13;1.50;;;1.40;;
28311;SDS011;15572;48.810;9.148;2023-07-29T09:46:11;2.63;;;1.48;;
28311;SDS011;15572;48.810;9.148;2023-07-29T09:51:12;1.65;;;1.17;;
28311;SDS011;15572;48.810;9.148;2023-07-29T09:56:09;2.47;;;1.20;;
28311;SDS011;15572;48.810;9.148;2023-07-29T10:01:06;1.92;;;1.40;;
28311;SDS011;15572;48.810;9.148;2023-07-29T10:06:03;1.58;;;1.40;;
28311;SDS011;15572;48.810;9.148;2023-07-29T10:11:02;1.42;;;1.33;;
28311;SDS011;15572;48.810;9.148;2023-07-29T10:15:59;1.48;;;1.25;;
28311;SDS011;15572;48.810;9.148;2023-07-29T10:20:58;2.17;;;1.50;;
28311;SDS011;15572;48.810;9.148;2023-07-29T10:25:59;2.28;;;1.30;;
28311;SDS011;15572;48.810;9.148;2023-07-29T10:31:00;1.90;;;1.20;;
28311;SDS011;15572;48.810;9.148;2023-07-29T10:35:57;2.20;;;0.95;;
28311;SDS011;15572;48.810;9.148;2023-07-29T10:40:54;1.33;;;1.23;;
28311;SDS011;15572;48.810;9.148;2023-07-29T10:45:55;1.42;;;1.33;;
28311;SDS011;15572;48.810;9.148;2023-07-29T10:50:52;1.38;;;1.27;;
28311;SDS011;15572;48.810;9.148;2023-07-29T10:56:24;1.95;;;1.42;;
28311;SDS011;15572;48.810;9.148;2023-07-29T11:01:27;2.10;;;1.30;;
28311;SDS011;15572;48.810;9.148;2023-07-29T11:06:25;4.13;;;1.60;;
28311;SDS011;15572;48.810;9.148;2023-07-29T11:11:22;1.50;;;1.40;;
28311;SDS011;15572;48.810;9.148;2023-07-29T11:16:18;1.42;;;1.33;;
28311;SDS011;15572;48.810;9.148;2023-07-29T11:21:17;1.67;;;1.10;;
28311;SDS011;15572;48.810;9.148;2023-07-29T11:26:13;1.15;;;1.13;;
28311;SDS011;15572;48.810;9.148;2023-07-29T11:31:10;1.08;;;1.08;;
28311;SDS011;15572;48.810;9.148;2023-07-29T11:36:17;2.72;;;1.17;;
28311;SDS011;15572;48.810;9.148;2023-07-29T11:41:18;2.45;;;1.50;;
28311;SDS011;15572;48.810;9.148;2023-07-29T11:46:15;1.17;;;1.10;;
28311;SDS011;15572;48.810;9.148;2023-07-29T11:51:18;1.30;;;1.20;;
28311;SDS011;15572;48.810;9.148;2023-07-29T11:56:15;1.83;;;1.50;;
28311;SDS011;15572;48.810;9.148;2023-07-29T12:01:12;1.50;;;1.40;;
28311;SDS011;15572;48.810;9.148;2023-07-29T12:06:09;1.40;;;1.30;;
28311;SDS011;15572;48.810;9.148;2023-07-29T12:11:07;1.95;;;1.30;;
28311;SDS011;15572;48.810;9.148;2023-07-29T12:16:04;1.70;;;1.60;;
28311;SDS011;15572;48.810;9.148;2023-07-29T12:21:01;2.03;;;1.52;;
28311;SDS011;15572;48.810;9.148;2023-07-29T12:25:59;2.90;;;1.55;;
28311;SDS011;15572;48.810;9.148;2023-07-29T12:30:57;2.13;;;1.75;;
28311;SDS011;15572;48.810;9.148;2023-07-29T12:35:54;1.60;;;1.48;;
28311;SDS011;15572;48.810;9.148;2023-07-29T12:40:50;1.67;;;1.48;;
28311;SDS011;15572;48.810;9.148;2023-07-29T12:45:48;4.63;;;1.90;;
28311;SDS011;15572;48.810;9.148;2023-07-29T12:50:46;1.50;;;1.40;;
28311;SDS011;15572;48.810;9.148;2023-07-29T12:55:43;2.10;;;1.50;;
28311;SDS011;15572;48.810;9.148;2023-07-29T13:00:39;1.75;;;1.55;;
28311;SDS011;15572;48.810;9.148;2023-07-29T13:05:36;2.15;;;1.50;;
28311;SDS011;15572;48.810;9.148;2023-07-29T13:10:33;2.22;;;1.48;;
28311;SDS011;15572;48.810;9.148;2023-07-29T13:15:30;1.38;;;1.23;;
28311;SDS011;15572;48.810;9.148;2023-07-29T13:20:26;1.95;;;1.75;;
28311;SDS011;15572;48.810;9.148;2023-07-29T13:25:24;1.40;;;1.30;;
28311;SDS011;15572;48.810;9.148;2023-07-29T13:30:22;2.17;;;1.83;;
28311;SDS011;15572;48.810;9.148;2023-07-29T13:35:18;1.83;;;1.48;;
28311;SDS011;15572;48.810;9.148;2023-07-29T13:40:15;4.18;;;1.67;;
28311;SDS011;15572;48.810;9.148;2023-07-29T13:45:11;1.98;;;1.40;;
28311;SDS011;15572;48.810;9.148;2023-07-29T13:50:09;1.92;;;1.30;;
28311;SDS011;15572;48.810;9.148;2023-07-29T13:55:07;2.85;;;1.50;;
28311;SDS011;15572;48.810;9.148;2023-07-29T14:00:04;4.07;;;1.70;;
28311;SDS011;15572;48.810;9.148;2023-07-29T14:05:01;2.63;;;2.00;;
28311;SDS011;15572;48.810;9.148;2023-07-29T14:09:59;1.88;;;1.60;;
28311;SDS011;15572;48.810;9.148;2023-07-29T14:14:56;1.80;;;1.60;;
28311;SDS011;15572;48.810;9.148;2023-07-29T14:19:52;2.65;;;1.50;;
28311;SDS011;15572;48.810;9.148;2023-07-29T14:24:49;1.70;;;1.60;;
28311;SDS011;15572;48.810;9.148;2023-07-29T14:29:46;1.98;;;1.42;;
28311;SDS011;15572;48.810;9.148;2023-07-29T14:34:43;1.90;;;1.70;;
28311;SDS011;15572;48.810;9.148;2023-07-29T14:39:39;3.17;;;1.85;;
28311;SDS011;15572;48.810;9.148;2023-07-29T14:44:36;1.95;;;1.75;;
28311;SDS011;15572;48.810;9.148;2023-07-29T14:49:33;2.75;;;1.80;;
28311;SDS011;15572;48.810;9.148;2023-07-29T14:54:30;2.00;;;1.65;;
28311;SDS011;15572;48.810;9.148;2023-07-29T14:59:26;1.95;;;1.70;;
28311;SDS011;15572;48.810;9.148;2023-07-29T15:04:23;1.95;;;1.67;;
28311;SDS011;15572;48.810;9.148;2023-07-29T15:09:21;2.72;;;1.60;;
28311;SDS011;15572;48.810;9.148;2023-07-29T15:14:17;2.60;;;1.90;;
28311;SDS011;15572;48.810;9.148;2023-07-29T15:19:14;1.90;;;1.52;;
28311;SDS011;15572;48.810;9.148;2023-07-29T15:24:10;2.22;;;1.88;;
28311;SDS011;15572;48.810;9.148;2023-07-29T15:29:08;3.08;;;1.92;;
28311;SDS011;15572;48.810;9.148;2023-07-29T15:34:05;4.05;;;1.77;;
28311;SDS011;15572;48.810;9.148;2023-07-29T15:39:02;1.80;;;1.70;;
28311;SDS011;15572;48.810;9.148;2023-07-29T15:43:58;1.90;;;1.70;;
28311;SDS011;15572;48.810;9.148;2023-07-29T15:48:56;3.03;;;1.80;;
28311;SDS011;15572;48.810;9.148;2023-07-29T15:53:54;2.55;;;1.75;;
28311;SDS011;15572;48.810;9.148;2023-07-29T15:58:51;1.92;;;1.80;;
28311;SDS011;15572;48.810;9.148;2023-07-29T16:03:47;2.13;;;1.58;;
28311;SDS011;15572;48.810;9.148;2023-07-29T16:08:45;1.80;;;1.70;;
28311;SDS011;15572;48.810;9.148;2023-07-29T16:13:41;2.95;;;1.88;;
28311;SDS011;15572;48.810;9.148;2023-07-29T16:18:38;2.85;;;1.77;;
28311;SDS011;15572;48.810;9.148;2023-07-29T16:23:34;2.95;;;1.73;;
28311;SDS011;15572;48.810;9.148;2023-07-29T16:28:33;1.90;;;1.80;;
28311;SDS011;15572;48.810;9.148;2023-07-29T16:33:29;2.33;;;1.77;;
28311;SDS011;15572;48.810;9.148;2023-07-29T16:38:25;2.45;;;1.70;;
28311;SDS011;15572;48.810;9.148;2023-07-29T16:43:22;2.10;;;1.52;;
28311;SDS011;15572;48.810;9.148;2023-07-29T16:48:21;1.98;;;1.75;;
28311;SDS011;15572;48.810;9.148;2023-07-29T16:53:18;1.83;;;1.55;;
28311;SDS011;15572;48.810;9.148;2023-07-29T16:58:14;1.77;;;1.63;;
28311;SDS011;15572;48.810;9.148;2023-07-29T17:03:11;1.95;;;1.70;;
28311;SDS011;15572;48.810;9.148;2023-07-29T17:08:09;2.10;;;1.90;;
28311;SDS011;15572;48.810;9.148;2023-07-29T17:13:05;2.03;;;1.70;;
28311;SDS011;15572;48.810;9.148;2023-07-29T17:18:02;2.00;;;1.67;;
28311;SDS011;15572;48.810;9.148;2023-07-29T17:22:58;2.00;;;1.80;;
28311;SDS011;15572;48.810;9.148;2023-07-29T17:27:56;2.00;;;1.80;;
28311;SDS011;15572;48.810;9.148;2023-07-29T17:32:53;3.03;;;1.58;;
28311;SDS011;15572;48.810;9.148;2023-07-29T17:37:49;3.20;;;2.00;;
28311;SDS011;15572;48.810;9.148;2023-07-29T17:42:46;2.13;;;1.70;;
28311;SDS011;15572;48.810;9.148;2023-07-29T17:47:44;1.95;;;1.40;;
28311;SDS011;15572;48.810;9.148;2023-07-29T17:52:40;2.85;;;1.50;;
28311;SDS011;15572;48.810;9.148;2023-07-29T17:57:36;2.58;;;1.50;;
28311;SDS011;15572;48.810;9.148;2023-07-29T18:02:33;1.92;;;1.50;;
28311;SDS011;15572;48.810;9.148;2023-07-29T18:07:31;3.10;;;1.90;;
28311;SDS011;15572;48.810;9.148;2023-07-29T18:12:27;2.17;;;1.65;;
28311;SDS011;15572;48.810;9.148;2023-07-29T18:17:24;4.57;;;1.85;;
28311;SDS011;15572;48.810;9.148;2023-07-29T18:22:20;2.05;;;1.65;;
28311;SDS011;15572;48.810;9.148;2023-07-29T18:27:18;2.20;;;1.90;;
28311;SDS011;15572;48.810;9.148;2023-07-29T18:32:14;1.88;;;1.63;;
28311;SDS011;15572;48.810;9.148;2023-07-29T18:37:11;1.48;;;1.35;;
28311;SDS011;15572;48.810;9.148;2023-07-29T18:42:07;2.22;;;1.50;;
28311;SDS011;15572;48.810;9.148;2023-07-29T18:47:05;2.47;;;1.70;;
28311;SDS011;15572;48.810;9.148;2023-07-29T18:52:03;3.17;;;1.95;;
28311;SDS011;15572;48.810;9.148;2023-07-29T18:57:00;3.33;;;2.35;;
28311;SDS011;15572;48.810;9.148;2023-07-29T19:01:57;2.63;;;2.00;;
28311;SDS011;15572;48.810;9.148;2023-07-29T19:06:55;2.75;;;2.15;;
28311;SDS011;15572;48.810;9.148;2023-07-29T19:11:51;3.20;;;2.20;;
28311;SDS011;15572;48.810;9.148;2023-07-29T19:16:48;2.72;;;2.42;;
28311;SDS011;15572;48.810;9.148;2023-07-29T19:21:44;3.72;;;2.47;;
28311;SDS011;15572;48.810;9.148;2023-07-29T19:26:42;2.45;;;2.17;;
28311;SDS011;15572;48.810;9.148;2023-07-29T19:31:39;3.03;;;2.53;;
28311;SDS011;15572;48.810;9.148;2023-07-29T19:36:36;2.65;;;2.45;;
28311;SDS011;15572;48.810;9.148;2023-07-29T19:41:33;5.97;;;2.70;;
28311;SDS011;15572;48.810;9.148;2023-07-29T19:46:32;2.90;;;2.47;;
28311;SDS011;15572;48.810;9.148;2023-07-29T19:51:28;3.85;;;2.50;;
28311;SDS011;15572;48.810;9.148;2023-07-29T19:56:25;3.47;;;2.95;;
28311;SDS011;15572;48.810;9.148;2023-07-29T20:01:22;3.20;;;2.90;;
28311;SDS011;15572;48.810;9.148;2023-07-29T20:06:19;3.78;;;2.80;;
28311;SDS011;15572;48.810;9.148;2023-07-29T20:11:16;3.35;;;2.53;;
28311;SDS011;15572;48.810;9.148;2023-07-29T20:16:12;3.13;;;2.83;;
28311;SDS011;15572;48.810;9.148;2023-07-29T20:21:09;4.82;;;2.83;;
28311;SDS011;15572;48.810;9.148;2023-07-29T20:26:07;3.42;;;2.88;;
28311;SDS011;15572;48.810;9.148;2023-07-29T20:31:03;4.28;;;2.97;;
28311;SDS011;15572;48.810;9.148;2023-07-29T20:36:00;3.92;;;2.90;;
28311;SDS011;15572;48.810;9.148;2023-07-29T20:40:56;5.68;;;3.10;;
28311;SDS011;15572;48.810;9.148;2023-07-29T20:45:54;4.07;;;3.28;;
28311;SDS011;15572;48.810;9.148;2023-07-29T20:50:51;4.18;;;3.25;;
28311;SDS011;15572;48.810;9.148;2023-07-29T20:55:48;5.22;;;3.60;;
28311;SDS011;15572;48.810;9.148;2023-07-29T21:00:44;3.92;;;3.25;;
28311;SDS011;15572;48.810;9.148;2023-07-29T21:05:42;5.90;;;3.33;;
28311;SDS011;15572;48.810;9.148;2023-07-29T21:10:40;3.80;;;3.40;;
28311;SDS011;15572;48.810;9.148;2023-07-29T21:15:37;5.13;;;3.40;;
28311;SDS011;15572;48.810;9.148;2023-07-29T21:20:34;4.88;;;3.25;;
28311;SDS011;15572;48.810;9.148;2023-07-29T21:25:32;5.00;;;3.28;;
28311;SDS011;15572;48.810;9.148;2023-07-29T21:30:29;5.38;;;3.75;;
28311;SDS011;15572;48.810;9.148;2023-07-29T21:35:26;5.68;;;3.83;;
28311;SDS011;15572;48.810;9.148;2023-07-29T21:40:22;4.32;;;3.60;;
28311;SDS011;15572;48.810;9.148;2023-07-29T21:45:20;3.90;;;3.33;;
28311;SDS011;15572;48.810;9.148;2023-07-29T21:50:17;4.68;;;3.80;;
28311;SDS011;15572;48.810;9.148;2023-07-29T21:55:15;6.53;;;3.38;;
28311;SDS011;15572;48.810;9.148;2023-07-29T22:00:11;4.85;;;2.97;;
28311;SDS011;15572;48.810;9.148;2023-07-29T22:05:10;4.57;;;3.40;;
28311;SDS011;15572;48.810;9.148;2023-07-29T22:10:07;4.63;;;3.08;;
28311;SDS011;15572;48.810;9.148;2023-07-29T22:15:04;4.97;;;3.35;;
28311;SDS011;15572;48.810;9.148;2023-07-29T22:20:02;3.97;;;3.58;;
28311;SDS011;15572;48.810;9.148;2023-07-29T22:25:00;4.00;;;3.55;;
28311;SDS011;15572;48.810;9.148;2023-07-29T22:29:57;3.72;;;3.30;;
28311;SDS011;15572;48.810;9.148;2023-07-29T22:34:53;4.68;;;3.47;;
28311;SDS011;15572;48.810;9.148;2023-07-29T22:39:50;6.70;;;4.10;;
28311;SDS011;15572;48.810;9.148;2023-07-29T22:44:48;4.97;;;3.83;;
28311;SDS011;15572;48.810;9.148;2023-07-29T22:49:44;7.38;;;3.92;;
28311;SDS011;15572;48.810;9.148;2023-07-29T22:54:40;4.75;;;3.97;;
28311;SDS011;15572;48.810;9.148;2023-07-29T22:59:37;8.10;;;3.83;;
28311;SDS011;15572;48.810;9.148;2023-07-29T23:04:35;9.43;;;4.13;;
28311;SDS011;15572;48.810;9.148;2023-07-29T23:09:31;6.28;;;3.83;;
28311;SDS011;15572;48.810;9.148;2023-07-29T23:14:28;5.22;;;4.20;;
28311;SDS011;15572;48.810;9.148;2023-07-29T23:19:24;7.03;;;4.50;;
28311;SDS011;15572;48.810;9.148;2023-07-29T23:24:22;5.75;;;4.18;;
28311;SDS011;15572;48.810;9.148;2023-07-29T23:29:19;7.75;;;3.67;;
28311;SDS011;15572;48.810;9.148;2023-07-29T23:34:15;5.32;;;2.70;;
28311;SDS011;15572;48.810;9.148;2023-07-29T23:39:12;3.80;;;1.90;;
28311;SDS011;15572;48.810;9.148;2023-07-29T23:44:10;2.30;;;1.60;;
28311;SDS011;15572;48.810;9.148;2023-07-29T23:49:06;3.97;;;2.10;;
28311;SDS011;15572;48.810;9.148;2023-07-29T23:54:03;3.67;;;2.10;;
28311;SDS011;15572;48.810;9.148;2023-07-29T23:58:59;3.60;;;2.17;;
